Mesilla, NM (88046)

2:32 AM MST on January 30, 2015 (GMT -0700)
Las Cruces | Change Station
CLOSE
Current Station
Personal Weather Station
Location: Las Cruces, NM
Elevation: 3858 ft
Nearby Weather Stations

Elev 3858 ft 32.25 °N, 106.77 °W | Updated 1 second ago

Rain
Rain
48.4 °F
Feels Like 44 °F
N
9.2
Wind Variable Wind from SE
Gusts 12.3 mph

Today
High -- | Low -- °F
--% Chance of Precip.
Yesterday
High -- | Low -- °F
Precip. -- in
7:02 AM 5:38 PM
Waxing Gibbous, 81% visible
Pressure 30.28 in
Visibility 10.0 miles
Clouds Overcast 3600 ft
Windchill 44 °F
Dew Point 40 °F
Humidity 72%
Rainfall 0.00 in
Snow Depth Not available.
UV 0.0 out of 12
Pollen 5.00 out of 12
Air Quality Not available.
Flu Activity Not available.
METAR KLRU 300915Z AUTO 12010G17KT 10SM DZ OVC036 06/04 A3028 RMK AO2 T00600035

More Conditions Fewer Conditions

Pressure 30.28 in
Visibility 10.0 miles
Clouds Overcast 3600 ft
Windchill 44 °F
Dew Point 40 °F
Humidity 72%
Rainfall 0.00 in
Snow Depth Not available.
UV 0.0 out of 12
Pollen 5.00 out of 12
Air Quality Not available.
Flu Activity Not available.
METAR KLRU 300915Z AUTO 12010G17KT 10SM DZ OVC036 06/04 A3028 RMK AO2 T00600035

More Conditions Fewer Conditions

10-Day Weather Forecast

Almanac

Astronomy

Jan. 30, 2015 Rise Set
Actual Time
Civil Twilight
Nautical Twilight
Astronomical Twilight
Moon
Length of Visible Light
Length of Day
Tomorrow will be .
, % of the Moon is Illuminated

Today's Extremes

State Highs State Lows

Community

WunderPhotos

Upload Photos

1,791,737 photos uploaded!

WunderBlogs® & News

Nearby

Air Quality

  Air Quality AQ Index Pollutant
Not available.

Snow Depth

Station Depth Elevation

Earthquake Activity

City Distance Mag. Time & Date
Minimum magnitude displayed is 2.5.

Coastal Water Temperatures

Place Temperature

Nearby Weather Stations